Wetterdaten: aktuell Sonntag, 31.05.2020 09:00
Datum Zeit Temp. A. Feuchte A. Luftdruck Regen Wind Taupunkt Windchill Windben
31.05.2020 09:00 11,8 C 51 % 1021,2 hPa 0,0 l/m 3,0 km/h (1 Bft) 2,0 C 11,8 C 4,8 km/h (1 Bft)
31.05.2020 08:55 11,6 C 51 % 1021,1 hPa 0,0 l/m 3,3 km/h (1 Bft) 1,8 C 11,6 C 8,0 km/h (2 Bft)
31.05.2020 08:50 11,4 C 55 % 1021,2 hPa 0,0 l/m 3,2 km/h (1 Bft) 2,7 C 11,4 C 6,4 km/h (2 Bft)
31.05.2020 08:45 11,1 C 54 % 1021,1 hPa 0,0 l/m 3,8 km/h (1 Bft) 2,2 C 11,1 C 6,4 km/h (2 Bft)
31.05.2020 08:40 10,9 C 54 % 1021,1 hPa 0,0 l/m 3,6 km/h (1 Bft) 2,0 C 10,9 C 6,4 km/h (2 Bft)
31.05.2020 08:35 10,8 C 54 % 1021,0 hPa 0,0 l/m 3,8 km/h (1 Bft) 1,9 C 10,8 C 8,0 km/h (2 Bft)
31.05.2020 08:30 10,6 C 55 % 1021,1 hPa 0,0 l/m 4,5 km/h (1 Bft) 1,9 C 10,6 C 9,7 km/h (2 Bft)
31.05.2020 08:25 10,5 C 56 % 1021,1 hPa 0,0 l/m 1,4 km/h (1 Bft) 2,1 C 10,5 C 4,8 km/h (1 Bft)
31.05.2020 08:21 10,3 C 56 % 1021,1 hPa 0,0 l/m 3,8 km/h (1 Bft) 1,9 C 10,3 C 8,0 km/h (2 Bft)
31.05.2020 08:15 10,1 C 56 % 1021,1 hPa 0,0 l/m 4,9 km/h (1 Bft) 1,7 C 10,1 C 8,0 km/h (2 Bft)
31.05.2020 08:10 9,9 C 57 % 1021,1 hPa 0,0 l/m 2,5 km/h (1 Bft) 1,8 C 9,9 C 8,0 km/h (2 Bft)
31.05.2020 08:05 9,7 C 57 % 1021,0 hPa 0,0 l/m 2,0 km/h (1 Bft) 1,6 C 9,7 C 4,8 km/h (1 Bft)
31.05.2020 08:00 9,5 C 59 % 1021,0 hPa 0,0 l/m 2,2 km/h (1 Bft) 1,9 C 9,5 C 4,8 km/h (1 Bft)
31.05.2020 07:55 9,3 C 59 % 1021,0 hPa 0,0 l/m 3,7 km/h (1 Bft) 1,7 C 9,3 C 8,0 km/h (2 Bft)
31.05.2020 07:50 9,1 C 61 % 1020,9 hPa 0,0 l/m 2,0 km/h (1 Bft) 2,0 C 9,1 C 6,4 km/h (2 Bft)
31.05.2020 07:45 8,8 C 62 % 1020,7 hPa 0,0 l/m 1,8 km/h (1 Bft) 1,9 C 8,8 C 4,8 km/h (1 Bft)
31.05.2020 07:40 8,6 C 63 % 1020,7 hPa 0,0 l/m 0,5 km/h (0 Bft) 2,0 C 8,6 C 3,2 km/h (1 Bft)
31.05.2020 07:35 8,3 C 64 % 1020,8 hPa 0,0 l/m 1,0 km/h (0 Bft) 1,9 C 8,3 C 3,2 km/h (1 Bft)
31.05.2020 07:30 7,9 C 65 % 1020,7 hPa 0,0 l/m 1,4 km/h (1 Bft) 1,7 C 7,9 C 4,8 km/h (1 Bft)
31.05.2020 07:25 7,6 C 67 % 1020,7 hPa 0,0 l/m 1,1 km/h (1 Bft) 1,9 C 7,6 C 3,2 km/h (1 Bft)
31.05.2020 07:20 7,3 C 67 % 1020,7 hPa 0,0 l/m 1,2 km/h (1 Bft) 1,6 C 7,3 C 3,2 km/h (1 Bft)
_ Min-Zeit 05:20 00:05 05:10 - 06:40 04:35 05:25 06:25
Minimum _ 4,6 C 50 % 1020,4 hPa - 0,3 km/h (0 Bft) -0,7 C 4,6 C 1,6 km/h (1 Bft)
_ Max-Zeit 09:00 06:55 00:00 00:00 08:15 08:50 09:00 08:30
Maximum _ 11,8 C 75 % 1021,6 hPa 0,0 l/m 4,9 km/h
N (1 Bft)
2,7 C 11,8 C 9,7 km/h
N-NW (2 Bft)
Durchschnitt _ 6,9 C 63 % 1021,0 hPa #0,0 l/m 2,4 km/h (1 Bft) 0,2 C 6,9 C 4,5 km/h (1 Bft)